sensor_id;sensor_type;location;lat;lon;timestamp;P1;durP1;ratioP1;P2;durP2;ratioP2
42912;SDS011;50720;54.324;18.558;2022-10-15T00:00:48;60.42;;;39.70;;
42912;SDS011;50720;54.324;18.558;2022-10-15T00:03:30;71.32;;;41.85;;
42912;SDS011;50720;54.324;18.558;2022-10-15T00:06:02;71.03;;;40.75;;
42912;SDS011;50720;54.324;18.558;2022-10-15T00:08:32;69.20;;;39.45;;
42912;SDS011;50720;54.324;18.558;2022-10-15T00:11:03;64.03;;;37.95;;
42912;SDS011;50720;54.324;18.558;2022-10-15T00:13:34;59.67;;;35.20;;
42912;SDS011;50720;54.324;18.558;2022-10-15T00:16:06;66.43;;;38.20;;
42912;SDS011;50720;54.324;18.558;2022-10-15T00:18:38;66.30;;;39.33;;
42912;SDS011;50720;54.324;18.558;2022-10-15T00:21:08;62.15;;;37.17;;
42912;SDS011;50720;54.324;18.558;2022-10-15T00:23:39;65.50;;;38.80;;
42912;SDS011;50720;54.324;18.558;2022-10-15T00:26:09;65.60;;;39.72;;
42912;SDS011;50720;54.324;18.558;2022-10-15T00:28:41;70.20;;;38.80;;
42912;SDS011;50720;54.324;18.558;2022-10-15T00:31:12;70.20;;;40.58;;
42912;SDS011;50720;54.324;18.558;2022-10-15T00:33:44;67.85;;;39.05;;
42912;SDS011;50720;54.324;18.558;2022-10-15T00:36:14;72.13;;;41.33;;
42912;SDS011;50720;54.324;18.558;2022-10-15T00:38:45;64.40;;;38.38;;
42912;SDS011;50720;54.324;18.558;2022-10-15T00:41:16;68.43;;;38.92;;
42912;SDS011;50720;54.324;18.558;2022-10-15T00:43:47;72.93;;;37.95;;
42912;SDS011;50720;54.324;18.558;2022-10-15T00:46:22;73.55;;;41.65;;
42912;SDS011;50720;54.324;18.558;2022-10-15T00:48:56;70.72;;;40.85;;
42912;SDS011;50720;54.324;18.558;2022-10-15T00:54:07;72.22;;;41.50;;
42912;SDS011;50720;54.324;18.558;2022-10-15T00:56:39;73.10;;;42.58;;
42912;SDS011;50720;54.324;18.558;2022-10-15T00:59:10;79.38;;;45.10;;
42912;SDS011;50720;54.324;18.558;2022-10-15T01:01:42;77.95;;;45.03;;
42912;SDS011;50720;54.324;18.558;2022-10-15T01:04:13;76.68;;;44.00;;
42912;SDS011;50720;54.324;18.558;2022-10-15T01:06:45;75.43;;;45.13;;
42912;SDS011;50720;54.324;18.558;2022-10-15T01:09:14;84.15;;;47.65;;
42912;SDS011;50720;54.324;18.558;2022-10-15T01:11:45;80.30;;;45.72;;
42912;SDS011;50720;54.324;18.558;2022-10-15T01:14:26;77.85;;;46.20;;
42912;SDS011;50720;54.324;18.558;2022-10-15T01:17:06;78.00;;;46.65;;
42912;SDS011;50720;54.324;18.558;2022-10-15T01:20:12;87.72;;;49.45;;
42912;SDS011;50720;54.324;18.558;2022-10-15T01:26:42;84.07;;;47.60;;
42912;SDS011;50720;54.324;18.558;2022-10-15T01:29:35;81.93;;;48.33;;
42912;SDS011;50720;54.324;18.558;2022-10-15T01:32:22;78.10;;;45.63;;
42912;SDS011;50720;54.324;18.558;2022-10-15T01:34:55;79.47;;;46.15;;
42912;SDS011;50720;54.324;18.558;2022-10-15T01:37:33;81.03;;;45.78;;
42912;SDS011;50720;54.324;18.558;2022-10-15T01:40:06;80.45;;;47.00;;
42912;SDS011;50720;54.324;18.558;2022-10-15T01:42:43;75.25;;;44.08;;
42912;SDS011;50720;54.324;18.558;2022-10-15T01:45:16;74.90;;;44.08;;
42912;SDS011;50720;54.324;18.558;2022-10-15T01:47:54;77.13;;;42.95;;
42912;SDS011;50720;54.324;18.558;2022-10-15T01:50:26;73.00;;;45.78;;
42912;SDS011;50720;54.324;18.558;2022-10-15T01:52:59;74.63;;;43.10;;
42912;SDS011;50720;54.324;18.558;2022-10-15T01:55:31;73.72;;;45.00;;
42912;SDS011;50720;54.324;18.558;2022-10-15T01:58:02;77.65;;;44.65;;
42912;SDS011;50720;54.324;18.558;2022-10-15T02:03:03;79.72;;;44.45;;
42912;SDS011;50720;54.324;18.558;2022-10-15T02:05:34;79.45;;;45.58;;
42912;SDS011;50720;54.324;18.558;2022-10-15T02:08:10;81.15;;;46.70;;
42912;SDS011;50720;54.324;18.558;2022-10-15T02:10:48;75.88;;;47.22;;
42912;SDS011;50720;54.324;18.558;2022-10-15T02:13:23;70.65;;;44.15;;
42912;SDS011;50720;54.324;18.558;2022-10-15T02:16:01;75.25;;;44.78;;
42912;SDS011;50720;54.324;18.558;2022-10-15T02:18:38;73.57;;;47.90;;
42912;SDS011;50720;54.324;18.558;2022-10-15T02:21:15;72.60;;;44.42;;
42912;SDS011;50720;54.324;18.558;2022-10-15T02:23:50;71.68;;;46.45;;
42912;SDS011;50720;54.324;18.558;2022-10-15T02:26:22;68.45;;;43.33;;
42912;SDS011;50720;54.324;18.558;2022-10-15T02:28:55;78.32;;;46.53;;
42912;SDS011;50720;54.324;18.558;2022-10-15T02:31:28;82.35;;;49.60;;
42912;SDS011;50720;54.324;18.558;2022-10-15T02:34:03;82.05;;;47.90;;
42912;SDS011;50720;54.324;18.558;2022-10-15T02:36:36;80.80;;;49.17;;
42912;SDS011;50720;54.324;18.558;2022-10-15T02:39:08;88.28;;;50.63;;
42912;SDS011;50720;54.324;18.558;2022-10-15T02:41:40;83.38;;;50.28;;
42912;SDS011;50720;54.324;18.558;2022-10-15T02:44:10;82.63;;;47.92;;
42912;SDS011;50720;54.324;18.558;2022-10-15T02:46:40;84.38;;;49.13;;
42912;SDS011;50720;54.324;18.558;2022-10-15T02:49:11;88.35;;;48.38;;
42912;SDS011;50720;54.324;18.558;2022-10-15T02:51:40;81.05;;;48.10;;
42912;SDS011;50720;54.324;18.558;2022-10-15T02:54:10;82.63;;;50.63;;
42912;SDS011;50720;54.324;18.558;2022-10-15T02:56:40;87.63;;;49.08;;
42912;SDS011;50720;54.324;18.558;2022-10-15T02:59:10;83.30;;;49.03;;
42912;SDS011;50720;54.324;18.558;2022-10-15T03:01:39;79.75;;;46.72;;
42912;SDS011;50720;54.324;18.558;2022-10-15T03:04:10;80.28;;;47.45;;
42912;SDS011;50720;54.324;18.558;2022-10-15T03:06:40;80.03;;;46.90;;
42912;SDS011;50720;54.324;18.558;2022-10-15T03:09:10;81.60;;;45.97;;
42912;SDS011;50720;54.324;18.558;2022-10-15T03:11:39;75.78;;;46.70;;
42912;SDS011;50720;54.324;18.558;2022-10-15T03:14:09;75.13;;;45.05;;
42912;SDS011;50720;54.324;18.558;2022-10-15T03:16:39;76.72;;;45.25;;
42912;SDS011;50720;54.324;18.558;2022-10-15T03:19:08;79.63;;;47.65;;
42912;SDS011;50720;54.324;18.558;2022-10-15T03:21:40;72.97;;;45.70;;
42912;SDS011;50720;54.324;18.558;2022-10-15T03:24:09;83.78;;;47.85;;
42912;SDS011;50720;54.324;18.558;2022-10-15T03:26:39;92.03;;;50.95;;
42912;SDS011;50720;54.324;18.558;2022-10-15T03:29:09;90.65;;;51.38;;
42912;SDS011;50720;54.324;18.558;2022-10-15T03:31:38;97.57;;;52.28;;
42912;SDS011;50720;54.324;18.558;2022-10-15T03:34:08;90.30;;;49.40;;
42912;SDS011;50720;54.324;18.558;2022-10-15T03:36:39;86.88;;;49.53;;
42912;SDS011;50720;54.324;18.558;2022-10-15T03:39:09;92.32;;;52.80;;
42912;SDS011;50720;54.324;18.558;2022-10-15T03:41:38;100.50;;;54.42;;
42912;SDS011;50720;54.324;18.558;2022-10-15T03:44:13;89.30;;;52.08;;
42912;SDS011;50720;54.324;18.558;2022-10-15T03:46:42;100.03;;;53.55;;
42912;SDS011;50720;54.324;18.558;2022-10-15T03:49:11;86.90;;;51.25;;
42912;SDS011;50720;54.324;18.558;2022-10-15T03:51:43;99.57;;;53.20;;
42912;SDS011;50720;54.324;18.558;2022-10-15T03:54:12;109.28;;;52.78;;
42912;SDS011;50720;54.324;18.558;2022-10-15T03:56:42;99.30;;;51.27;;
42912;SDS011;50720;54.324;18.558;2022-10-15T03:59:12;91.45;;;50.33;;
42912;SDS011;50720;54.324;18.558;2022-10-15T04:01:42;87.93;;;50.77;;
42912;SDS011;50720;54.324;18.558;2022-10-15T04:04:12;90.60;;;51.25;;
42912;SDS011;50720;54.324;18.558;2022-10-15T04:06:43;92.40;;;50.80;;
42912;SDS011;50720;54.324;18.558;2022-10-15T04:09:14;99.22;;;50.40;;
42912;SDS011;50720;54.324;18.558;2022-10-15T04:11:44;86.53;;;50.45;;
42912;SDS011;50720;54.324;18.558;2022-10-15T04:14:13;87.78;;;49.17;;
42912;SDS011;50720;54.324;18.558;2022-10-15T04:16:43;93.13;;;49.97;;
42912;SDS011;50720;54.324;18.558;2022-10-15T04:19:12;91.32;;;52.03;;
42912;SDS011;50720;54.324;18.558;2022-10-15T04:21:43;96.35;;;51.30;;
42912;SDS011;50720;54.324;18.558;2022-10-15T04:24:13;95.65;;;53.80;;
42912;SDS011;50720;54.324;18.558;2022-10-15T04:26:43;100.20;;;53.90;;
42912;SDS011;50720;54.324;18.558;2022-10-15T04:29:12;91.05;;;54.40;;
42912;SDS011;50720;54.324;18.558;2022-10-15T04:31:42;110.07;;;58.37;;
42912;SDS011;50720;54.324;18.558;2022-10-15T04:34:12;106.80;;;58.33;;
42912;SDS011;50720;54.324;18.558;2022-10-15T04:36:41;97.40;;;54.88;;
42912;SDS011;50720;54.324;18.558;2022-10-15T04:39:12;111.60;;;58.72;;
42912;SDS011;50720;54.324;18.558;2022-10-15T04:41:42;105.95;;;57.35;;
42912;SDS011;50720;54.324;18.558;2022-10-15T04:44:11;119.65;;;60.22;;
42912;SDS011;50720;54.324;18.558;2022-10-15T04:46:41;105.63;;;58.10;;
42912;SDS011;50720;54.324;18.558;2022-10-15T04:49:10;127.45;;;61.90;;
42912;SDS011;50720;54.324;18.558;2022-10-15T04:51:39;119.18;;;62.85;;
42912;SDS011;50720;54.324;18.558;2022-10-15T04:54:09;120.07;;;63.83;;
42912;SDS011;50720;54.324;18.558;2022-10-15T04:56:40;128.05;;;64.80;;
42912;SDS011;50720;54.324;18.558;2022-10-15T05:01:39;116.28;;;60.95;;
42912;SDS011;50720;54.324;18.558;2022-10-15T05:04:09;131.75;;;65.22;;
42912;SDS011;50720;54.324;18.558;2022-10-15T05:06:39;130.77;;;65.13;;
42912;SDS011;50720;54.324;18.558;2022-10-15T05:09:11;137.68;;;67.25;;
42912;SDS011;50720;54.324;18.558;2022-10-15T05:11:43;132.60;;;68.15;;
42912;SDS011;50720;54.324;18.558;2022-10-15T05:14:12;146.95;;;69.15;;
42912;SDS011;50720;54.324;18.558;2022-10-15T05:16:43;144.15;;;66.78;;
42912;SDS011;50720;54.324;18.558;2022-10-15T05:19:13;137.83;;;66.03;;
42912;SDS011;50720;54.324;18.558;2022-10-15T05:21:43;127.32;;;67.43;;
42912;SDS011;50720;54.324;18.558;2022-10-15T05:24:12;133.57;;;67.53;;
42912;SDS011;50720;54.324;18.558;2022-10-15T05:26:43;143.55;;;68.50;;
42912;SDS011;50720;54.324;18.558;2022-10-15T05:29:13;148.43;;;72.70;;
42912;SDS011;50720;54.324;18.558;2022-10-15T05:31:42;145.50;;;70.05;;
42912;SDS011;50720;54.324;18.558;2022-10-15T05:34:12;137.23;;;69.10;;
42912;SDS011;50720;54.324;18.558;2022-10-15T05:36:42;144.35;;;70.00;;
42912;SDS011;50720;54.324;18.558;2022-10-15T05:39:11;141.63;;;70.30;;
42912;SDS011;50720;54.324;18.558;2022-10-15T05:41:40;149.27;;;69.80;;
42912;SDS011;50720;54.324;18.558;2022-10-15T05:44:12;137.18;;;69.50;;
42912;SDS011;50720;54.324;18.558;2022-10-15T05:46:41;143.30;;;71.38;;
42912;SDS011;50720;54.324;18.558;2022-10-15T05:49:11;160.05;;;71.95;;
42912;SDS011;50720;54.324;18.558;2022-10-15T05:51:41;154.40;;;71.43;;
42912;SDS011;50720;54.324;18.558;2022-10-15T05:54:10;151.55;;;69.85;;
42912;SDS011;50720;54.324;18.558;2022-10-15T05:56:40;158.50;;;71.72;;
42912;SDS011;50720;54.324;18.558;2022-10-15T05:59:11;144.30;;;69.90;;
42912;SDS011;50720;54.324;18.558;2022-10-15T06:01:41;144.38;;;69.07;;
42912;SDS011;50720;54.324;18.558;2022-10-15T06:04:12;138.43;;;67.85;;
42912;SDS011;50720;54.324;18.558;2022-10-15T06:06:43;152.25;;;72.93;;
42912;SDS011;50720;54.324;18.558;2022-10-15T06:09:13;140.65;;;68.95;;
42912;SDS011;50720;54.324;18.558;2022-10-15T06:11:42;146.88;;;70.82;;
42912;SDS011;50720;54.324;18.558;2022-10-15T06:14:13;145.35;;;69.10;;
42912;SDS011;50720;54.324;18.558;2022-10-15T06:19:17;152.02;;;72.47;;
42912;SDS011;50720;54.324;18.558;2022-10-15T06:21:46;147.18;;;74.43;;
42912;SDS011;50720;54.324;18.558;2022-10-15T06:24:15;145.38;;;71.82;;
42912;SDS011;50720;54.324;18.558;2022-10-15T06:26:45;150.38;;;71.35;;
42912;SDS011;50720;54.324;18.558;2022-10-15T06:29:16;142.88;;;70.88;;
42912;SDS011;50720;54.324;18.558;2022-10-15T06:31:45;145.38;;;70.90;;
42912;SDS011;50720;54.324;18.558;2022-10-15T06:34:15;143.70;;;72.53;;
42912;SDS011;50720;54.324;18.558;2022-10-15T06:36:45;146.82;;;68.32;;
42912;SDS011;50720;54.324;18.558;2022-10-15T06:39:14;146.90;;;71.53;;
42912;SDS011;50720;54.324;18.558;2022-10-15T06:41:44;134.87;;;69.73;;
42912;SDS011;50720;54.324;18.558;2022-10-15T06:44:13;144.32;;;70.97;;
42912;SDS011;50720;54.324;18.558;2022-10-15T06:46:45;143.32;;;68.28;;
42912;SDS011;50720;54.324;18.558;2022-10-15T06:49:14;141.43;;;69.53;;
42912;SDS011;50720;54.324;18.558;2022-10-15T06:51:43;136.48;;;72.03;;
42912;SDS011;50720;54.324;18.558;2022-10-15T06:54:13;147.25;;;70.18;;
42912;SDS011;50720;54.324;18.558;2022-10-15T06:56:43;147.00;;;71.22;;
42912;SDS011;50720;54.324;18.558;2022-10-15T06:59:12;133.38;;;68.68;;
42912;SDS011;50720;54.324;18.558;2022-10-15T07:01:43;132.80;;;66.75;;
42912;SDS011;50720;54.324;18.558;2022-10-15T07:04:12;128.75;;;66.50;;
42912;SDS011;50720;54.324;18.558;2022-10-15T07:06:42;140.77;;;67.95;;
42912;SDS011;50720;54.324;18.558;2022-10-15T07:09:12;128.20;;;66.88;;
42912;SDS011;50720;54.324;18.558;2022-10-15T07:11:41;118.13;;;63.33;;
42912;SDS011;50720;54.324;18.558;2022-10-15T07:14:10;121.20;;;64.07;;
42912;SDS011;50720;54.324;18.558;2022-10-15T07:16:40;120.05;;;64.68;;
42912;SDS011;50720;54.324;18.558;2022-10-15T07:19:11;126.20;;;62.53;;
42912;SDS011;50720;54.324;18.558;2022-10-15T07:21:41;116.30;;;62.58;;
42912;SDS011;50720;54.324;18.558;2022-10-15T07:24:10;123.60;;;63.85;;
42912;SDS011;50720;54.324;18.558;2022-10-15T07:26:39;117.57;;;62.72;;
42912;SDS011;50720;54.324;18.558;2022-10-15T07:29:09;128.57;;;64.80;;
42912;SDS011;50720;54.324;18.558;2022-10-15T07:31:39;115.05;;;59.80;;
42912;SDS011;50720;54.324;18.558;2022-10-15T07:34:16;117.43;;;58.97;;
42912;SDS011;50720;54.324;18.558;2022-10-15T07:39:15;106.15;;;59.47;;
42912;SDS011;50720;54.324;18.558;2022-10-15T07:41:45;101.87;;;56.47;;
42912;SDS011;50720;54.324;18.558;2022-10-15T07:44:15;104.32;;;55.05;;
42912;SDS011;50720;54.324;18.558;2022-10-15T07:46:45;99.20;;;56.13;;
42912;SDS011;50720;54.324;18.558;2022-10-15T07:49:16;94.05;;;53.10;;
42912;SDS011;50720;54.324;18.558;2022-10-15T07:51:46;97.13;;;55.42;;
42912;SDS011;50720;54.324;18.558;2022-10-15T07:54:15;80.15;;;49.15;;
42912;SDS011;50720;54.324;18.558;2022-10-15T07:56:49;87.60;;;49.42;;
42912;SDS011;50720;54.324;18.558;2022-10-15T07:59:19;81.32;;;48.28;;
42912;SDS011;50720;54.324;18.558;2022-10-15T08:01:49;87.70;;;48.10;;
42912;SDS011;50720;54.324;18.558;2022-10-15T08:04:20;76.13;;;48.47;;
42912;SDS011;50720;54.324;18.558;2022-10-15T08:06:49;81.72;;;47.72;;
42912;SDS011;50720;54.324;18.558;2022-10-15T08:09:19;85.17;;;46.47;;
42912;SDS011;50720;54.324;18.558;2022-10-15T08:11:48;78.53;;;45.40;;
42912;SDS011;50720;54.324;18.558;2022-10-15T08:14:18;79.40;;;46.88;;
42912;SDS011;50720;54.324;18.558;2022-10-15T08:16:47;70.00;;;43.30;;
42912;SDS011;50720;54.324;18.558;2022-10-15T08:19:18;71.07;;;45.75;;
42912;SDS011;50720;54.324;18.558;2022-10-15T08:24:18;81.03;;;43.35;;
42912;SDS011;50720;54.324;18.558;2022-10-15T08:26:47;77.15;;;45.53;;
42912;SDS011;50720;54.324;18.558;2022-10-15T08:29:17;73.47;;;43.17;;
42912;SDS011;50720;54.324;18.558;2022-10-15T08:31:47;76.32;;;45.17;;
42912;SDS011;50720;54.324;18.558;2022-10-15T08:34:17;79.88;;;45.53;;
42912;SDS011;50720;54.324;18.558;2022-10-15T08:36:48;74.75;;;46.75;;
42912;SDS011;50720;54.324;18.558;2022-10-15T08:39:18;79.05;;;45.83;;
42912;SDS011;50720;54.324;18.558;2022-10-15T08:41:47;71.22;;;43.33;;
42912;SDS011;50720;54.324;18.558;2022-10-15T08:44:22;74.47;;;46.55;;
42912;SDS011;50720;54.324;18.558;2022-10-15T08:46:55;79.57;;;45.72;;
42912;SDS011;50720;54.324;18.558;2022-10-15T08:49:33;71.47;;;43.72;;
42912;SDS011;50720;54.324;18.558;2022-10-15T08:52:14;69.38;;;42.63;;
42912;SDS011;50720;54.324;18.558;2022-10-15T08:54:49;72.45;;;42.47;;
42912;SDS011;50720;54.324;18.558;2022-10-15T08:57:21;68.13;;;41.97;;
42912;SDS011;50720;54.324;18.558;2022-10-15T09:00:07;65.00;;;38.58;;
42912;SDS011;50720;54.324;18.558;2022-10-15T09:02:42;68.97;;;40.63;;
42912;SDS011;50720;54.324;18.558;2022-10-15T09:05:21;64.50;;;37.42;;
42912;SDS011;50720;54.324;18.558;2022-10-15T09:07:58;57.70;;;35.63;;
42912;SDS011;50720;54.324;18.558;2022-10-15T09:10:38;55.47;;;35.60;;
42912;SDS011;50720;54.324;18.558;2022-10-15T09:13:15;53.03;;;34.70;;
42912;SDS011;50720;54.324;18.558;2022-10-15T09:15:52;56.95;;;33.95;;
42912;SDS011;50720;54.324;18.558;2022-10-15T09:18:25;57.80;;;36.63;;
42912;SDS011;50720;54.324;18.558;2022-10-15T09:20:58;54.60;;;33.80;;
42912;SDS011;50720;54.324;18.558;2022-10-15T09:23:32;52.55;;;33.08;;
42912;SDS011;50720;54.324;18.558;2022-10-15T09:26:04;48.53;;;30.08;;
42912;SDS011;50720;54.324;18.558;2022-10-15T09:28:45;45.22;;;31.10;;
42912;SDS011;50720;54.324;18.558;2022-10-15T09:31:20;51.60;;;31.98;;
42912;SDS011;50720;54.324;18.558;2022-10-15T09:33:54;48.80;;;28.85;;
42912;SDS011;50720;54.324;18.558;2022-10-15T09:36:31;47.70;;;28.55;;
42912;SDS011;50720;54.324;18.558;2022-10-15T09:39:11;47.58;;;30.30;;
42912;SDS011;50720;54.324;18.558;2022-10-15T09:42:08;47.10;;;28.85;;
42912;SDS011;50720;54.324;18.558;2022-10-15T09:44:44;43.30;;;30.58;;
42912;SDS011;50720;54.324;18.558;2022-10-15T09:47:16;46.00;;;28.20;;
42912;SDS011;50720;54.324;18.558;2022-10-15T09:49:51;49.83;;;30.20;;
42912;SDS011;50720;54.324;18.558;2022-10-15T09:52:24;47.00;;;31.17;;
42912;SDS011;50720;54.324;18.558;2022-10-15T09:55:04;51.25;;;30.88;;
42912;SDS011;50720;54.324;18.558;2022-10-15T09:57:38;54.20;;;33.00;;
42912;SDS011;50720;54.324;18.558;2022-10-15T10:00:09;48.10;;;32.17;;
42912;SDS011;50720;54.324;18.558;2022-10-15T10:02:41;50.92;;;32.42;;
42912;SDS011;50720;54.324;18.558;2022-10-15T10:05:17;54.25;;;32.83;;
42912;SDS011;50720;54.324;18.558;2022-10-15T10:07:54;57.40;;;33.90;;
42912;SDS011;50720;54.324;18.558;2022-10-15T10:10:38;60.05;;;33.92;;
42912;SDS011;50720;54.324;18.558;2022-10-15T10:13:19;57.58;;;34.13;;
42912;SDS011;50720;54.324;18.558;2022-10-15T10:15:52;55.80;;;33.42;;
42912;SDS011;50720;54.324;18.558;2022-10-15T10:18:25;51.42;;;32.63;;
42912;SDS011;50720;54.324;18.558;2022-10-15T10:20:55;50.08;;;32.58;;
42912;SDS011;50720;54.324;18.558;2022-10-15T10:23:30;56.38;;;34.58;;
42912;SDS011;50720;54.324;18.558;2022-10-15T10:26:03;58.97;;;35.25;;
42912;SDS011;50720;54.324;18.558;2022-10-15T10:28:36;53.72;;;31.80;;
42912;SDS011;50720;54.324;18.558;2022-10-15T10:31:10;58.13;;;36.40;;
42912;SDS011;50720;54.324;18.558;2022-10-15T10:33:42;56.35;;;35.35;;
42912;SDS011;50720;54.324;18.558;2022-10-15T10:36:20;53.75;;;33.42;;
42912;SDS011;50720;54.324;18.558;2022-10-15T10:38:54;52.28;;;33.15;;
42912;SDS011;50720;54.324;18.558;2022-10-15T10:41:28;51.28;;;32.33;;
42912;SDS011;50720;54.324;18.558;2022-10-15T10:44:18;46.72;;;29.50;;
42912;SDS011;50720;54.324;18.558;2022-10-15T10:47:08;50.33;;;31.00;;
42912;SDS011;50720;54.324;18.558;2022-10-15T10:49:40;48.08;;;29.25;;
42912;SDS011;50720;54.324;18.558;2022-10-15T10:52:17;52.08;;;31.67;;
42912;SDS011;50720;54.324;18.558;2022-10-15T10:54:51;49.90;;;32.83;;
42912;SDS011;50720;54.324;18.558;2022-10-15T10:57:33;53.10;;;32.90;;
42912;SDS011;50720;54.324;18.558;2022-10-15T11:00:12;46.60;;;30.17;;
42912;SDS011;50720;54.324;18.558;2022-10-15T11:02:44;49.65;;;33.33;;
42912;SDS011;50720;54.324;18.558;2022-10-15T11:05:15;60.25;;;34.47;;
42912;SDS011;50720;54.324;18.558;2022-10-15T11:07:50;53.25;;;33.35;;
42912;SDS011;50720;54.324;18.558;2022-10-15T11:10:28;51.28;;;31.77;;
42912;SDS011;50720;54.324;18.558;2022-10-15T11:13:06;49.85;;;30.40;;
42912;SDS011;50720;54.324;18.558;2022-10-15T11:15:54;50.67;;;33.08;;
42912;SDS011;50720;54.324;18.558;2022-10-15T11:18:35;48.15;;;28.38;;
42912;SDS011;50720;54.324;18.558;2022-10-15T11:21:22;48.90;;;31.13;;
42912;SDS011;50720;54.324;18.558;2022-10-15T11:24:11;46.38;;;29.20;;
42912;SDS011;50720;54.324;18.558;2022-10-15T11:26:50;48.05;;;29.33;;
42912;SDS011;50720;54.324;18.558;2022-10-15T11:29:47;45.85;;;27.92;;
42912;SDS011;50720;54.324;18.558;2022-10-15T11:32:30;42.92;;;28.33;;
42912;SDS011;50720;54.324;18.558;2022-10-15T11:35:32;48.08;;;30.42;;
42912;SDS011;50720;54.324;18.558;2022-10-15T11:38:22;48.92;;;30.35;;
42912;SDS011;50720;54.324;18.558;2022-10-15T11:41:19;46.08;;;29.40;;
42912;SDS011;50720;54.324;18.558;2022-10-15T11:44:05;42.13;;;27.33;;
42912;SDS011;50720;54.324;18.558;2022-10-15T11:46:48;43.97;;;27.17;;
42912;SDS011;50720;54.324;18.558;2022-10-15T11:49:29;45.25;;;29.05;;
42912;SDS011;50720;54.324;18.558;2022-10-15T11:52:11;46.20;;;28.77;;
42912;SDS011;50720;54.324;18.558;2022-10-15T11:54:53;45.78;;;31.48;;
42912;SDS011;50720;54.324;18.558;2022-10-15T11:57:30;47.05;;;29.02;;
42912;SDS011;50720;54.324;18.558;2022-10-15T12:00:03;46.88;;;29.13;;
42912;SDS011;50720;54.324;18.558;2022-10-15T12:02:43;45.90;;;29.88;;
42912;SDS011;50720;54.324;18.558;2022-10-15T12:05:16;52.65;;;30.15;;
42912;SDS011;50720;54.324;18.558;2022-10-15T12:07:53;41.58;;;27.15;;
42912;SDS011;50720;54.324;18.558;2022-10-15T12:10:28;44.42;;;26.05;;
42912;SDS011;50720;54.324;18.558;2022-10-15T12:13:07;37.67;;;27.17;;
42912;SDS011;50720;54.324;18.558;2022-10-15T12:15:44;39.28;;;25.00;;
42912;SDS011;50720;54.324;18.558;2022-10-15T12:18:24;37.00;;;23.90;;
42912;SDS011;50720;54.324;18.558;2022-10-15T12:21:04;37.17;;;23.95;;
42912;SDS011;50720;54.324;18.558;2022-10-15T12:24:02;36.17;;;23.13;;
42912;SDS011;50720;54.324;18.558;2022-10-15T12:26:37;32.65;;;21.38;;
42912;SDS011;50720;54.324;18.558;2022-10-15T12:29:17;36.25;;;22.55;;
42912;SDS011;50720;54.324;18.558;2022-10-15T12:31:49;32.75;;;21.60;;
42912;SDS011;50720;54.324;18.558;2022-10-15T12:34:35;33.38;;;21.10;;
42912;SDS011;50720;54.324;18.558;2022-10-15T12:37:14;28.42;;;19.77;;
42912;SDS011;50720;54.324;18.558;2022-10-15T12:39:45;30.35;;;19.40;;
42912;SDS011;50720;54.324;18.558;2022-10-15T12:42:24;31.70;;;20.63;;
42912;SDS011;50720;54.324;18.558;2022-10-15T12:44:55;28.80;;;19.02;;
42912;SDS011;50720;54.324;18.558;2022-10-15T12:47:47;30.60;;;19.17;;
42912;SDS011;50720;54.324;18.558;2022-10-15T12:50:22;26.50;;;19.77;;
42912;SDS011;50720;54.324;18.558;2022-10-15T12:52:54;28.65;;;19.88;;
42912;SDS011;50720;54.324;18.558;2022-10-15T12:55:29;28.73;;;19.33;;
42912;SDS011;50720;54.324;18.558;2022-10-15T12:58:01;32.70;;;20.23;;
42912;SDS011;50720;54.324;18.558;2022-10-15T13:00:54;30.65;;;19.20;;
42912;SDS011;50720;54.324;18.558;2022-10-15T13:03:28;32.35;;;20.77;;
42912;SDS011;50720;54.324;18.558;2022-10-15T13:08:43;24.70;;;17.50;;
42912;SDS011;50720;54.324;18.558;2022-10-15T13:11:17;31.30;;;20.02;;
42912;SDS011;50720;54.324;18.558;2022-10-15T13:13:51;27.80;;;18.73;;
42912;SDS011;50720;54.324;18.558;2022-10-15T13:16:26;32.83;;;19.02;;
42912;SDS011;50720;54.324;18.558;2022-10-15T13:18:56;27.30;;;20.27;;
42912;SDS011;50720;54.324;18.558;2022-10-15T13:24:21;33.88;;;21.83;;
42912;SDS011;50720;54.324;18.558;2022-10-15T13:26:51;35.05;;;22.35;;
42912;SDS011;50720;54.324;18.558;2022-10-15T13:29:23;35.92;;;21.70;;
42912;SDS011;50720;54.324;18.558;2022-10-15T13:31:54;33.15;;;20.65;;
42912;SDS011;50720;54.324;18.558;2022-10-15T13:34:26;32.60;;;20.52;;
42912;SDS011;50720;54.324;18.558;2022-10-15T13:36:59;33.20;;;22.65;;
42912;SDS011;50720;54.324;18.558;2022-10-15T13:39:31;37.00;;;23.95;;
42912;SDS011;50720;54.324;18.558;2022-10-15T13:42:05;37.22;;;23.10;;
42912;SDS011;50720;54.324;18.558;2022-10-15T13:44:37;35.42;;;22.75;;
42912;SDS011;50720;54.324;18.558;2022-10-15T13:47:18;36.90;;;22.47;;
42912;SDS011;50720;54.324;18.558;2022-10-15T13:52:41;36.67;;;23.63;;
42912;SDS011;50720;54.324;18.558;2022-10-15T13:55:17;35.45;;;24.23;;
42912;SDS011;50720;54.324;18.558;2022-10-15T13:57:48;32.72;;;23.00;;
42912;SDS011;50720;54.324;18.558;2022-10-15T14:00:24;36.00;;;24.75;;
42912;SDS011;50720;54.324;18.558;2022-10-15T14:03:05;39.38;;;24.05;;
42912;SDS011;50720;54.324;18.558;2022-10-15T14:08:12;36.47;;;22.65;;
42912;SDS011;50720;54.324;18.558;2022-10-15T14:10:44;36.67;;;23.02;;
42912;SDS011;50720;54.324;18.558;2022-10-15T14:13:14;31.13;;;21.77;;
42912;SDS011;50720;54.324;18.558;2022-10-15T14:15:48;37.00;;;25.17;;
42912;SDS011;50720;54.324;18.558;2022-10-15T14:18:39;34.33;;;22.90;;
42912;SDS011;50720;54.324;18.558;2022-10-15T14:21:16;36.20;;;22.25;;
42912;SDS011;50720;54.324;18.558;2022-10-15T14:23:48;34.50;;;21.63;;
42912;SDS011;50720;54.324;18.558;2022-10-15T14:26:22;36.63;;;24.25;;
42912;SDS011;50720;54.324;18.558;2022-10-15T14:28:52;36.88;;;24.17;;
42912;SDS011;50720;54.324;18.558;2022-10-15T14:31:27;39.42;;;24.38;;
42912;SDS011;50720;54.324;18.558;2022-10-15T14:33:59;35.35;;;23.55;;
42912;SDS011;50720;54.324;18.558;2022-10-15T14:36:29;38.25;;;24.58;;
42912;SDS011;50720;54.324;18.558;2022-10-15T14:39:26;36.70;;;23.10;;
42912;SDS011;50720;54.324;18.558;2022-10-15T14:41:58;36.20;;;24.20;;
42912;SDS011;50720;54.324;18.558;2022-10-15T14:44:42;39.03;;;23.95;;
42912;SDS011;50720;54.324;18.558;2022-10-15T14:47:16;38.55;;;24.88;;
42912;SDS011;50720;54.324;18.558;2022-10-15T14:49:49;36.55;;;24.75;;
42912;SDS011;50720;54.324;18.558;2022-10-15T14:52:21;35.65;;;24.08;;
42912;SDS011;50720;54.324;18.558;2022-10-15T14:54:58;43.92;;;27.60;;
42912;SDS011;50720;54.324;18.558;2022-10-15T14:57:31;43.63;;;24.98;;
42912;SDS011;50720;54.324;18.558;2022-10-15T15:00:05;42.15;;;25.08;;
42912;SDS011;50720;54.324;18.558;2022-10-15T15:02:41;36.92;;;24.45;;
42912;SDS011;50720;54.324;18.558;2022-10-15T15:05:16;38.17;;;25.10;;
42912;SDS011;50720;54.324;18.558;2022-10-15T15:07:49;36.08;;;25.20;;
42912;SDS011;50720;54.324;18.558;2022-10-15T15:10:21;36.80;;;23.85;;
42912;SDS011;50720;54.324;18.558;2022-10-15T15:12:52;37.17;;;24.10;;